createdAt,value
2015-04-20T07:10:36.521Z,8830
2015-04-20T07:10:47.099Z,8856
2015-04-20T07:10:57.552Z,8839
2015-04-20T07:11:07.975Z,8865
2015-04-20T07:11:18.397Z,8856
2015-04-20T07:11:28.834Z,8814
2015-04-20T07:11:39.303Z,8865
2015-04-20T07:11:49.756Z,8839
2015-04-20T07:12:00.178Z,8849
2015-04-20T07:12:10.618Z,8874
2015-04-20T07:12:21.040Z,8857
2015-04-20T07:12:31.431Z,8857
2015-04-20T07:12:41.853Z,8849
2015-04-20T07:12:52.290Z,8884
2015-04-20T07:13:02.696Z,8859
2015-04-20T07:13:13.120Z,8867
2015-04-20T07:13:23.527Z,8867
2015-04-20T07:13:33.933Z,8587
2015-04-20T07:13:44.339Z,8630
2015-04-20T07:13:54.683Z,8708
2015-04-20T07:14:05.120Z,8598
2015-04-20T07:14:16.263Z,9331
2015-04-20T07:14:26.732Z,9348
2015-04-20T07:14:37.185Z,8971
2015-04-20T07:14:47.575Z,8971
2015-04-20T07:14:58.060Z,8971
2015-04-20T07:15:08.513Z,8971
2015-04-20T07:15:18.969Z,8971
2015-04-20T07:15:29.438Z,8954
2015-04-20T07:15:40.563Z,8988
2015-04-20T07:15:51.032Z,8988
2015-04-20T07:16:01.453Z,8981
2015-04-20T07:16:11.925Z,8964
2015-04-20T07:16:22.347Z,8981
2015-04-20T07:16:32.816Z,8981
2015-04-20T07:16:43.238Z,8981
2015-04-20T07:16:53.660Z,8981
2015-04-20T07:17:04.113Z,8981
2015-04-20T07:17:14.552Z,8789
2015-04-20T07:17:24.958Z,8754
2015-04-20T07:17:35.396Z,8771
2015-04-20T07:17:45.802Z,8780
2015-04-20T07:17:56.208Z,8693
2015-04-20T07:18:06.677Z,8693
2015-04-20T07:18:17.084Z,8693
2015-04-20T07:18:27.491Z,8849
2015-04-20T07:18:37.913Z,8798
2015-04-20T07:18:48.334Z,8798
2015-04-20T07:18:58.788Z,8815
2015-04-20T07:19:09.256Z,8808
2015-04-20T07:19:19.697Z,8808
2015-04-20T07:19:30.166Z,8791
2015-04-20T07:19:40.541Z,8808
2015-04-20T07:19:51.009Z,8954
2015-04-20T07:20:01.462Z,8877
2015-04-20T07:20:11.918Z,8885
2015-04-20T07:20:23.027Z,8885
2015-04-20T07:20:34.105Z,8885
2015-04-20T07:20:44.558Z,8868
2015-04-20T07:20:55.496Z,8868
2015-04-20T07:21:05.949Z,8851
2015-04-20T07:21:16.888Z,8964
2015-04-20T07:21:27.310Z,8947
2015-04-20T07:21:37.701Z,8971
2015-04-20T07:21:48.138Z,8913
2015-04-20T07:21:58.545Z,8896
2015-04-20T07:22:08.998Z,8886
2015-04-20T07:22:19.438Z,8913
2015-04-20T07:22:29.829Z,8783
2015-04-20T07:22:40.266Z,8783
2015-04-20T07:22:50.766Z,8747
2015-04-20T07:23:01.204Z,8774
2015-04-20T07:23:11.610Z,8775
2015-04-20T07:23:22.018Z,8817
2015-04-20T07:23:32.440Z,8791
2015-04-20T07:23:42.862Z,8781
2015-04-20T07:23:53.346Z,8817
2015-04-20T07:24:03.784Z,8809
2015-04-20T07:24:14.256Z,8792
2015-04-20T07:24:24.693Z,8783
2015-04-20T07:24:35.115Z,8791
2015-04-20T07:24:45.568Z,8800
2015-04-20T07:24:56.021Z,8775
2015-04-20T07:25:06.599Z,8783
2015-04-20T07:25:17.040Z,8749
2015-04-20T07:25:28.102Z,8766
2015-04-20T07:25:38.556Z,8747
2015-04-20T07:25:49.024Z,8766
2015-04-20T07:25:59.415Z,8766
2015-04-20T07:26:09.884Z,8749
2015-04-20T07:26:20.322Z,8758
2015-04-20T07:26:30.760Z,8758
2015-04-20T07:26:41.213Z,8749
2015-04-20T07:26:51.635Z,8758
2015-04-20T07:27:02.057Z,8758
2015-04-20T07:27:12.478Z,8758
2015-04-20T07:27:22.902Z,8775
2015-04-20T07:27:33.340Z,8750
2015-04-20T07:27:43.762Z,8750
2015-04-20T07:27:54.230Z,8750
2015-04-20T07:28:04.684Z,8835
2015-04-20T07:28:15.121Z,8835
2015-04-20T07:28:25.562Z,8835
2015-04-20T07:28:36.030Z,8818
2015-04-20T07:28:46.608Z,8826
2015-04-20T07:28:57.030Z,8801
2015-04-20T07:29:07.452Z,8835
2015-04-20T07:29:17.907Z,8503
2015-04-20T07:29:28.392Z,8523
2015-04-20T07:29:38.907Z,8455
2015-04-20T07:29:49.392Z,8828
2015-04-20T07:30:00.517Z,8812
2015-04-20T07:30:10.970Z,8820
2015-04-20T07:30:21.472Z,8803
2015-04-20T07:30:31.925Z,8664
2015-04-20T07:30:42.394Z,8811
2015-04-20T07:30:53.409Z,8837
2015-04-20T07:31:04.300Z,8837
2015-04-20T07:31:14.706Z,8803
2015-04-20T07:31:25.131Z,8803
2015-04-20T07:31:35.615Z,8803
2015-04-20T07:31:46.069Z,8794
2015-04-20T07:31:56.506Z,8777
2015-04-20T07:32:06.944Z,8760
2015-04-20T07:32:17.397Z,8692
2015-04-20T07:32:27.836Z,8474
2015-04-20T07:32:38.336Z,8428
2015-04-20T07:32:49.336Z,8394
2015-04-20T07:32:59.742Z,8315
2015-04-20T07:33:10.180Z,8412
2015-04-20T07:33:20.619Z,8429
2015-04-20T07:33:31.041Z,8421
2015-04-20T07:33:41.494Z,8421
2015-04-20T07:33:51.994Z,8421
2015-04-20T07:34:02.416Z,8438
2015-04-20T07:34:12.823Z,8431
2015-04-20T07:34:23.372Z,8448
2015-04-20T07:34:33.779Z,8448
2015-04-20T07:34:44.216Z,8448
2015-04-20T07:34:54.685Z,8431
2015-04-20T07:35:05.076Z,8431
2015-04-20T07:35:15.497Z,8431
2015-04-20T07:35:25.921Z,8423
2015-04-20T07:35:36.359Z,8423
2015-04-20T07:35:46.812Z,8423
2015-04-20T07:35:57.765Z,8431
2015-04-20T07:36:08.203Z,8431
2015-04-20T07:36:18.624Z,8414
2015-04-20T07:36:29.487Z,8414
2015-04-20T07:36:39.893Z,8389
2015-04-20T07:36:50.346Z,8414
2015-04-20T07:37:00.799Z,8414
2015-04-20T07:37:11.237Z,8414
2015-04-20T07:37:21.645Z,8397
2015-04-20T07:37:32.067Z,8397
2015-04-20T07:37:42.536Z,8397
2015-04-20T07:37:52.989Z,8380
2015-04-20T07:38:03.426Z,8370
2015-04-20T07:38:13.848Z,8370
2015-04-20T07:38:24.257Z,8370
2015-04-20T07:38:34.773Z,8353
2015-04-20T07:38:45.273Z,8353
2015-04-20T07:38:55.836Z,8336
2015-04-20T07:39:06.289Z,8336
2015-04-20T07:39:16.742Z,8346
2015-04-20T07:39:27.150Z,8363
2015-04-20T07:39:38.369Z,8346
2015-04-20T07:39:48.759Z,8353
2015-04-20T07:39:59.244Z,8363
2015-04-20T07:40:09.650Z,8355
2015-04-20T07:40:20.056Z,8372
2015-04-20T07:40:30.496Z,8363
2015-04-20T07:40:40.902Z,8346
2015-04-20T07:40:51.418Z,8346
2015-04-20T07:41:01.886Z,8346
2015-04-20T07:41:12.308Z,8346
2015-04-20T07:41:22.733Z,8346
2015-04-20T07:41:33.155Z,8312
2015-04-20T07:41:43.577Z,8336
2015-04-20T07:41:54.483Z,8312
2015-04-20T07:42:04.889Z,8312
2015-04-20T07:42:15.280Z,8329
2015-04-20T07:42:25.720Z,8278
2015-04-20T07:42:36.141Z,8260
2015-04-20T07:42:46.673Z,8278
2015-04-20T07:42:57.095Z,8278
2015-04-20T07:43:07.516Z,8278
2015-04-20T07:43:17.876Z,8260
2015-04-20T07:43:28.330Z,8243
2015-04-20T07:43:38.752Z,8268
2015-04-20T07:43:49.205Z,8243
2015-04-20T07:43:59.642Z,8278
2015-04-20T07:44:10.080Z,8270
2015-04-20T07:44:20.533Z,8270
2015-04-20T07:44:31.005Z,8270
2015-04-20T07:44:41.442Z,8262
2015-04-20T07:44:51.880Z,8279
2015-04-20T07:45:02.349Z,8296
2015-04-20T07:45:12.786Z,8271
2015-04-20T07:45:23.208Z,8271
2015-04-20T07:45:33.633Z,8271
2015-04-20T07:45:44.086Z,8279
2015-04-20T07:45:54.492Z,8279
2015-04-20T07:46:04.945Z,8271
2015-04-20T07:46:15.461Z,8288
2015-04-20T07:46:25.932Z,8271
2015-04-20T07:46:36.400Z,8262
2015-04-20T07:46:47.713Z,8279
2015-04-20T07:46:58.166Z,8271
2015-04-20T07:47:08.744Z,8271
2015-04-20T07:47:19.213Z,8237
2015-04-20T07:47:29.684Z,8245
2015-04-20T07:47:40.152Z,8228
2015-04-20T07:47:50.590Z,8211
2015-04-20T07:48:01.027Z,8219
2015-04-20T07:48:11.496Z,8219
2015-04-20T07:48:21.981Z,8219
2015-04-20T07:48:32.437Z,8219
2015-04-20T07:48:42.874Z,8194
2015-04-20T07:48:53.734Z,8194
2015-04-20T07:49:04.734Z,8194
2015-04-20T07:49:15.187Z,8194
2015-04-20T07:49:25.672Z,8194
2015-04-20T07:49:36.766Z,8211
2015-04-20T07:49:47.297Z,8211
2015-04-20T07:49:57.766Z,8211
2015-04-20T07:50:08.297Z,8203
2015-04-20T07:50:18.703Z,8186
2015-04-20T07:50:29.159Z,8203
2015-04-20T07:50:39.644Z,8203
2015-04-20T07:50:50.097Z,8203
2015-04-20T07:51:00.534Z,8203
2015-04-20T07:51:11.034Z,8203
2015-04-20T07:51:21.488Z,8186
2015-04-20T07:51:32.241Z,8186
2015-04-20T07:51:42.694Z,8186
2015-04-20T07:51:53.131Z,8186
2015-04-20T07:52:04.053Z,8186
2015-04-20T07:52:14.491Z,8186
2015-04-20T07:52:24.881Z,8186
2015-04-20T07:52:35.383Z,8186
2015-04-20T07:52:45.805Z,8169
2015-04-20T07:52:56.680Z,8169
2015-04-20T07:53:07.133Z,8169
2015-04-20T07:53:18.008Z,8169
2015-04-20T07:53:28.510Z,8169
2015-04-20T07:53:38.948Z,8161
2015-04-20T07:53:49.385Z,8161
2015-04-20T07:53:59.791Z,8161
2015-04-20T07:54:10.245Z,8161
2015-04-20T07:54:20.713Z,8161
2015-04-20T07:54:31.184Z,8161
2015-04-20T07:54:41.622Z,8161
2015-04-20T07:54:52.122Z,8181
2015-04-20T07:55:02.559Z,8174
2015-04-20T07:55:13.028Z,8174
2015-04-20T07:55:23.559Z,8191
2015-04-20T07:55:34.031Z,8183
2015-04-20T07:55:44.468Z,8191
2015-04-20T07:55:55.078Z,8183
2015-04-20T07:56:05.515Z,8183
2015-04-20T07:56:15.937Z,8166
2015-04-20T07:56:26.453Z,8137
2015-04-20T07:56:36.923Z,8137
2015-04-20T07:56:47.408Z,8120
2015-04-20T07:56:57.861Z,8120
2015-04-20T07:57:08.314Z,8103
2015-04-20T07:57:18.830Z,8103
2015-04-20T07:57:29.910Z,8110
2015-04-20T07:57:40.410Z,8110
2015-04-20T07:57:50.785Z,8086
2015-04-20T07:58:01.222Z,8086
2015-04-20T07:58:11.644Z,8086
2015-04-20T07:58:22.082Z,8086
2015-04-20T07:58:32.506Z,8086
2015-04-20T07:58:42.959Z,8086
2015-04-20T07:58:53.521Z,8086
2015-04-20T07:59:03.974Z,8078
2015-04-20T07:59:14.443Z,8095
2015-04-20T07:59:24.974Z,8078
2015-04-20T07:59:35.384Z,8078
2015-04-20T07:59:45.837Z,8061
2015-04-20T07:59:56.337Z,8061
2015-04-20T08:00:06.790Z,8061
2015-04-20T08:00:17.305Z,8061
2015-04-20T08:00:27.727Z,8061
2015-04-20T08:00:38.198Z,8061
2015-04-20T08:00:48.604Z,8061
2015-04-20T08:00:59.042Z,8061
2015-04-20T08:01:09.464Z,8036
2015-04-20T08:01:19.901Z,8053
2015-04-20T08:01:30.323Z,8036
2015-04-20T08:01:40.794Z,8036
2015-04-20T08:01:51.216Z,8036
2015-04-20T08:02:02.169Z,8036
2015-04-20T08:02:12.622Z,8036
2015-04-20T08:02:23.059Z,8019
2015-04-20T08:02:33.656Z,8019
2015-04-20T08:02:44.109Z,8019
2015-04-20T08:02:54.531Z,8036
2015-04-20T08:03:04.969Z,8036
2015-04-20T08:03:15.406Z,8036
2015-04-20T08:03:25.859Z,8036
2015-04-20T08:03:36.300Z,8011
2015-04-20T08:03:46.722Z,8036
2015-04-20T08:03:57.190Z,8011
2015-04-20T08:04:07.722Z,8011
2015-04-20T08:04:18.128Z,8011
2015-04-20T08:04:28.581Z,8011
2015-04-20T08:04:39.099Z,8011
2015-04-20T08:04:49.552Z,7994
2015-04-20T08:05:00.646Z,8002
2015-04-20T08:05:11.130Z,8002
2015-04-20T08:05:21.536Z,8002
2015-04-20T08:05:31.960Z,7977
2015-04-20T08:05:42.413Z,8002
2015-04-20T08:05:52.835Z,7977
2015-04-20T08:06:03.273Z,7977
2015-04-20T08:06:13.694Z,7977
2015-04-20T08:06:24.116Z,7977
2015-04-20T08:06:34.540Z,7977
2015-04-20T08:06:45.025Z,7960
2015-04-20T08:06:55.571Z,7960
2015-04-20T08:07:05.946Z,7960
2015-04-20T08:07:16.431Z,7960
2015-04-20T08:07:26.884Z,7960
2015-04-20T08:07:37.370Z,7943
2015-04-20T08:07:47.823Z,7943
2015-04-20T08:07:58.761Z,7943
2015-04-20T08:08:09.261Z,7943
2015-04-20T08:08:19.667Z,7943
2015-04-20T08:08:30.214Z,7943
2015-04-20T08:08:40.670Z,7926
2015-04-20T08:08:51.264Z,7943
2015-04-20T08:09:01.764Z,7943
2015-04-20T08:09:12.201Z,7943
2015-04-20T08:09:22.701Z,7960
2015-04-20T08:09:33.201Z,7935
2015-04-20T08:09:43.594Z,7960
2015-04-20T08:09:54.032Z,7943
2015-04-20T08:10:04.485Z,7943
2015-04-20T08:10:16.000Z,7943
2015-04-20T08:10:26.516Z,7935
2015-04-20T08:10:36.940Z,7935
2015-04-20T08:10:47.393Z,7935
2015-04-20T08:10:57.830Z,7918
2015-04-20T08:11:08.268Z,7918
2015-04-20T08:11:18.737Z,7952
2015-04-20T08:11:29.080Z,7928
2015-04-20T08:11:39.537Z,7928
2015-04-20T08:11:50.552Z,7928
2015-04-20T08:12:00.974Z,7935
2015-04-20T08:12:11.412Z,7918
2015-04-20T08:12:21.896Z,7918
2015-04-20T08:12:32.349Z,7918
2015-04-20T08:12:42.757Z,7918
2015-04-20T08:12:53.648Z,7918
2015-04-20T08:13:04.070Z,7918
2015-04-20T08:13:15.023Z,7918
2015-04-20T08:13:25.554Z,7918
2015-04-20T08:13:36.042Z,7894
2015-04-20T08:13:46.542Z,7911
2015-04-20T08:13:56.979Z,7894
2015-04-20T08:14:07.448Z,7894
2015-04-20T08:14:17.870Z,7894
2015-04-20T08:14:28.385Z,7894
2015-04-20T08:14:38.839Z,7877
2015-04-20T08:14:49.480Z,7894
2015-04-20T08:15:00.589Z,7877
2015-04-20T08:15:10.980Z,7877
2015-04-20T08:15:21.433Z,7894
2015-04-20T08:15:31.855Z,7877
2015-04-20T08:15:42.280Z,7877
2015-04-20T08:15:55.717Z,7869
2015-04-20T08:16:06.171Z,7869
2015-04-20T08:16:16.608Z,7894
2015-04-20T08:16:27.561Z,7869
2015-04-20T08:16:38.016Z,7869
2015-04-20T08:16:49.266Z,7886
2015-04-20T08:16:59.751Z,7886
2015-04-20T08:17:11.188Z,7886
2015-04-20T08:17:22.548Z,7869
2015-04-20T08:17:33.485Z,7869
2015-04-20T08:17:45.440Z,7869
2015-04-20T08:17:55.846Z,7869
2015-04-20T08:18:06.268Z,7869
2015-04-20T08:18:16.690Z,7852
2015-04-20T08:18:27.206Z,7852
2015-04-20T08:18:37.646Z,7869
2015-04-20T08:18:48.146Z,7852
2015-04-20T08:18:58.599Z,7852
2015-04-20T08:19:09.053Z,7852
2015-04-20T08:19:20.209Z,7852
2015-04-20T08:19:31.287Z,7852
2015-04-20T08:19:41.773Z,7835
2015-04-20T08:19:52.258Z,7852
2015-04-20T08:20:03.414Z,7852
2015-04-20T08:20:14.555Z,7835
2015-04-20T08:20:25.055Z,7835
2015-04-20T08:20:35.555Z,7835
2015-04-20T08:20:47.323Z,7835
2015-04-20T08:20:57.745Z,7835
2015-04-20T08:21:08.167Z,7835
2015-04-20T08:21:18.573Z,7835
2015-04-20T08:21:29.042Z,7835
2015-04-20T08:21:40.060Z,7818
2015-04-20T08:21:50.919Z,7810
2015-04-20T08:22:01.669Z,7844
2015-04-20T08:22:12.075Z,7844
2015-04-20T08:22:22.513Z,7844
2015-04-20T08:22:33.013Z,7861
2015-04-20T08:22:43.921Z,7844
2015-04-20T08:22:54.296Z,7844
2015-04-20T08:23:04.749Z,7827
2015-04-20T08:23:15.218Z,7827
2015-04-20T08:23:29.827Z,7810
2015-04-20T08:23:40.751Z,7827
2015-04-20T08:23:51.204Z,7827
2015-04-20T08:24:01.689Z,7810
2015-04-20T08:24:12.173Z,7793
2015-04-20T08:24:22.720Z,7818
2015-04-20T08:24:33.189Z,7818
2015-04-20T08:24:44.270Z,7801
2015-04-20T08:24:54.770Z,7801
2015-04-20T08:25:05.723Z,7776
2015-04-20T08:25:16.645Z,7793
2015-04-20T08:25:27.098Z,7793
2015-04-20T08:25:37.537Z,7793
2015-04-20T08:25:48.084Z,7776
2015-04-20T08:25:58.506Z,7776
2015-04-20T08:26:08.990Z,7776
2015-04-20T08:26:19.428Z,7776
2015-04-20T08:26:29.865Z,7776
2015-04-20T08:26:40.697Z,7785
2015-04-20T08:26:51.681Z,7785
2015-04-20T08:27:02.118Z,7802
2015-04-20T08:27:13.072Z,7802
2015-04-20T08:27:23.493Z,7785
2015-04-20T08:27:33.978Z,7802
2015-04-20T08:27:44.463Z,7794
2015-04-20T08:27:54.932Z,7811
2015-04-20T08:28:05.369Z,7804
2015-04-20T08:28:15.807Z,7804
2015-04-20T08:28:26.260Z,7811
2015-04-20T08:28:37.073Z,7794
2015-04-20T08:28:52.669Z,7794
2015-04-20T08:29:03.138Z,7794
2015-04-20T08:29:13.622Z,7787
2015-04-20T08:29:24.044Z,7794
2015-04-20T08:29:34.497Z,7777
2015-04-20T08:29:44.890Z,7794
2015-04-20T08:29:55.390Z,7794
2015-04-20T08:30:05.796Z,7787
2015-04-20T08:30:16.249Z,7787
2015-04-20T08:30:29.734Z,7804
2015-04-20T08:30:40.643Z,7787
2015-04-20T08:30:51.221Z,7804
2015-04-20T08:31:09.143Z,7804
2015-04-20T08:31:19.596Z,7821
2015-04-20T08:31:30.049Z,7796
2015-04-20T08:31:40.504Z,7813
2015-04-20T08:31:50.911Z,7821
2015-04-20T08:32:02.661Z,7804
2015-04-20T08:32:13.129Z,7804
2015-04-20T08:32:23.567Z,7804
2015-04-20T08:32:34.411Z,7804
2015-04-20T08:32:45.585Z,7821
2015-04-20T08:32:56.022Z,7804
2015-04-20T08:33:06.460Z,7804
2015-04-20T08:33:16.897Z,7787
2015-04-20T08:33:27.866Z,7787
2015-04-20T08:33:38.744Z,7787
2015-04-20T08:33:49.166Z,7805
2015-04-20T08:34:00.009Z,7805
2015-04-20T08:34:10.384Z,7805
2015-04-20T08:34:20.838Z,7805
2015-04-20T08:34:32.197Z,7805
2015-04-20T08:34:42.980Z,7822
2015-04-20T08:34:54.293Z,7814
2015-04-20T08:35:04.715Z,7822
2015-04-20T08:35:16.121Z,7822
2015-04-20T08:35:26.590Z,7805
2015-04-20T08:35:37.043Z,7788
2015-04-20T08:35:47.513Z,7813
2015-04-20T08:35:57.982Z,7813
2015-04-20T08:36:08.435Z,7813
2015-04-20T08:36:18.967Z,7796
2015-04-20T08:36:29.998Z,7796
2015-04-20T08:36:41.047Z,7813
2015-04-20T08:36:51.453Z,7796
2015-04-20T08:37:06.062Z,7796
2015-04-20T08:37:22.875Z,7796
2015-04-20T08:37:33.312Z,7796
2015-04-20T08:37:44.222Z,7796
2015-04-20T08:37:54.675Z,7788
2015-04-20T08:38:05.081Z,7797
2015-04-20T08:38:15.503Z,7814
2015-04-20T08:38:27.206Z,7814
2015-04-20T08:38:37.675Z,7814
2015-04-20T08:38:48.880Z,7814
2015-04-20T08:38:59.302Z,7814
2015-04-20T08:39:09.770Z,7797
2015-04-20T08:39:20.599Z,7797
2015-04-20T08:39:31.052Z,7805
2015-04-20T08:39:41.538Z,7788
2015-04-20T08:39:52.366Z,7788
2015-04-20T08:40:02.819Z,7780
2015-04-20T08:40:13.288Z,7780
2015-04-20T08:40:24.069Z,7788
2015-04-20T08:40:34.538Z,7788
2015-04-20T08:40:45.571Z,7788
2015-04-20T08:40:56.587Z,7788
2015-04-20T08:41:07.009Z,7771
2015-04-20T08:41:17.478Z,7763
2015-04-20T08:41:27.931Z,7788
2015-04-20T08:41:38.384Z,7763
2015-04-20T08:41:49.496Z,7780
2015-04-20T08:41:59.918Z,7780
2015-04-20T08:42:10.402Z,7780
2015-04-20T08:42:21.340Z,7780
2015-04-20T08:42:32.652Z,7780
2015-04-20T08:42:43.093Z,7780
2015-04-20T08:42:53.952Z,7780
2015-04-20T08:43:04.890Z,7780
2015-04-20T08:43:15.874Z,7780
2015-04-20T08:43:26.874Z,7780
2015-04-20T08:43:37.812Z,7780
2015-04-20T08:43:49.251Z,7780
2015-04-20T08:43:59.689Z,7780
2015-04-20T08:44:10.720Z,7780
2015-04-20T08:44:21.189Z,7773
2015-04-20T08:44:31.626Z,7790
2015-04-20T08:44:42.081Z,7782
2015-04-20T08:44:52.566Z,7799
2015-04-20T08:45:03.050Z,7816
2015-04-20T08:45:13.519Z,7791
2015-04-20T08:45:24.800Z,7799
2015-04-20T08:45:35.238Z,7782
2015-04-20T08:45:46.021Z,7773
2015-04-20T08:45:56.490Z,7790
2015-04-20T08:46:06.958Z,7773
2015-04-20T08:46:17.396Z,7773
2015-04-20T08:46:27.865Z,7756
2015-04-20T08:46:38.318Z,7773
2015-04-20T08:46:48.899Z,7782
2015-04-20T08:46:59.352Z,7765
2015-04-20T08:47:09.774Z,7782
2015-04-20T08:47:20.196Z,7774
2015-04-20T08:47:30.664Z,7774
2015-04-20T08:47:41.086Z,7791
2015-04-20T08:47:51.510Z,7791
2015-04-20T08:48:01.916Z,7774
2015-04-20T08:48:12.370Z,7782
2015-04-20T08:48:23.323Z,7765
2015-04-20T08:48:34.229Z,7765
2015-04-20T08:48:44.653Z,7748
2015-04-20T08:48:56.293Z,7756
2015-04-20T08:49:06.715Z,7756
2015-04-20T08:49:17.137Z,7756
2015-04-20T08:49:27.590Z,7756
2015-04-20T08:49:37.997Z,7756
2015-04-20T08:49:48.453Z,7773
2015-04-20T08:49:58.875Z,7756
2015-04-20T08:50:09.296Z,7756
2015-04-20T08:50:27.468Z,7756
2015-04-20T08:50:38.484Z,7763
2015-04-20T08:50:49.548Z,7739
2015-04-20T08:51:00.002Z,7756
2015-04-20T08:51:10.455Z,7739
2015-04-20T08:51:21.783Z,7756
2015-04-20T08:51:32.236Z,7748
2015-04-20T08:51:42.673Z,7748
2015-04-20T08:51:53.130Z,7756
2015-04-20T08:52:03.536Z,7739
2015-04-20T08:52:14.005Z,7722
2015-04-20T08:52:24.911Z,7737
2015-04-20T08:52:39.536Z,7660
2015-04-20T08:52:50.038Z,7688
2015-04-20T08:53:00.475Z,7695
2015-04-20T08:53:42.194Z,7632
2015-04-20T08:53:52.665Z,7648
